Time;durP1;ratioP1;P1;durP2;ratioP2;P2;SDS_P1;SDS_P2;PMS_P1;PMS_P2;Temp;Humidity;BMP_temperature;BMP_pressure;BME280_temperature;BME280_humidity;BME280_pressure;Samples;Min_cycle;Max_cycle;Signal;HPM_P1;HPM_P2
2023/02/27 00:01:06;;;;;;;0.80;0.60;;;5.60;56.10;;;;;;6276032;22;20049;-75
2023/02/27 00:03:32;;;;;;;5.60;0.70;;;5.60;56.20;;;;;;6275796;22;20023;-75
2023/02/27 00:05:57;;;;;;;0.80;0.70;;;5.60;56.10;;;;;;6275459;22;20007;-69
2023/02/27 00:08:23;;;;;;;0.60;0.40;;;5.60;55.90;;;;;;6276052;22;20016;-74
2023/02/27 00:10:49;;;;;;;1.07;0.53;;;5.60;56.20;;;;;;6275659;22;20074;-74
2023/02/27 00:13:15;;;;;;;1.33;0.40;;;5.60;56.50;;;;;;6275788;22;20007;-75
2023/02/27 00:15:41;;;;;;;1.50;0.70;;;5.60;56.40;;;;;;6275396;22;20321;-75
2023/02/27 00:18:07;;;;;;;1.47;0.60;;;5.60;56.60;;;;;;6275362;22;20426;-76
2023/02/27 00:20:36;;;;;;;0.97;0.60;;;5.60;56.20;;;;;;6275749;22;20071;-75
2023/02/27 00:23:04;;;;;;;1.97;0.63;;;5.60;56.60;;;;;;6275985;22;20004;-74
2023/02/27 00:25:31;;;;;;;0.80;0.67;;;5.60;56.30;;;;;;6276033;22;20326;-73
2023/02/27 00:27:57;;;;;;;1.47;0.80;;;5.60;56.40;;;;;;6275448;22;20068;-76
2023/02/27 00:30:25;;;;;;;0.63;0.50;;;5.60;56.30;;;;;;6275536;22;20071;-76
2023/02/27 00:32:51;;;;;;;0.53;0.50;;;5.60;56.40;;;;;;6275663;22;20010;-75
2023/02/27 00:35:17;;;;;;;1.10;0.60;;;5.60;56.20;;;;;;6275596;22;20057;-74
2023/02/27 00:37:43;;;;;;;1.63;0.63;;;5.60;56.30;;;;;;6275725;22;20024;-75
2023/02/27 00:40:10;;;;;;;0.80;0.50;;;5.60;56.30;;;;;;6275802;22;20000;-77
2023/02/27 00:42:36;;;;;;;1.67;0.70;;;5.60;55.70;;;;;;6275652;22;20065;-75
2023/02/27 00:45:03;;;;;;;0.93;0.60;;;5.60;56.00;;;;;;6275119;22;19999;-75
2023/02/27 00:47:29;;;;;;;0.70;0.57;;;5.60;56.30;;;;;;6275217;22;20040;-74
2023/02/27 00:49:55;;;;;;;0.73;0.67;;;5.60;56.60;;;;;;6275199;22;20058;-75
2023/02/27 00:52:21;;;;;;;1.37;0.70;;;5.50;56.70;;;;;;6275565;22;20006;-76
2023/02/27 00:54:46;;;;;;;1.00;0.67;;;5.60;56.90;;;;;;6275591;22;20075;-76
2023/02/27 00:57:12;;;;;;;0.97;0.40;;;5.60;57.00;;;;;;6275744;22;20034;-76
2023/02/27 00:59:38;;;;;;;0.97;0.60;;;5.50;56.80;;;;;;6275679;22;20373;-76
2023/02/27 01:02:04;;;;;;;0.70;0.50;;;5.60;56.60;;;;;;6275704;22;20024;-75
2023/02/27 01:04:29;;;;;;;1.60;0.60;;;5.50;56.80;;;;;;6275523;22;20007;-75
2023/02/27 01:06:55;;;;;;;1.10;0.70;;;5.50;57.30;;;;;;6275315;22;20008;-76
2023/02/27 01:09:21;;;;;;;2.47;0.80;;;5.50;57.40;;;;;;6274046;22;20430;-76
2023/02/27 01:11:47;;;;;;;0.83;0.77;;;5.50;57.60;;;;;;6275535;22;19999;-74
2023/02/27 01:14:13;;;;;;;1.40;0.70;;;5.50;58.00;;;;;;6275763;22;20000;-76
2023/02/27 01:16:39;;;;;;;0.63;0.50;;;5.50;57.30;;;;;;6276364;22;20008;-75
2023/02/27 01:19:05;;;;;;;4.03;0.70;;;5.50;57.10;;;;;;6277445;22;20003;-75
2023/02/27 01:21:30;;;;;;;1.40;0.50;;;5.50;56.90;;;;;;6277130;22;19995;-75
2023/02/27 01:23:56;;;;;;;1.37;0.60;;;5.50;57.00;;;;;;6277240;22;20004;-73
2023/02/27 01:26:22;;;;;;;1.00;0.73;;;5.50;57.60;;;;;;6277147;22;20000;-75
2023/02/27 01:28:47;;;;;;;2.00;0.80;;;5.50;57.80;;;;;;6277103;22;20338;-76
2023/02/27 01:31:13;;;;;;;1.00;0.63;;;5.40;58.60;;;;;;6276910;22;20007;-73
2023/02/27 01:33:39;;;;;;;0.90;0.50;;;5.40;58.40;;;;;;6276906;22;19999;-75
2023/02/27 01:36:05;;;;;;;2.07;0.97;;;5.40;58.90;;;;;;6275351;22;20496;-75
2023/02/27 01:38:30;;;;;;;1.73;1.10;;;5.40;59.40;;;;;;6277039;22;20000;-74
2023/02/27 01:40:56;;;;;;;1.80;0.80;;;5.40;59.40;;;;;;6276982;22;20049;-75
2023/02/27 01:43:22;;;;;;;1.50;0.80;;;5.40;59.60;;;;;;6276898;22;20004;-75
2023/02/27 01:45:49;;;;;;;0.93;0.67;;;5.40;59.70;;;;;;6275423;22;20004;-75
2023/02/27 01:48:32;;;;;;;3.03;0.90;;;5.30;59.00;;;;;;6276408;22;20092;-74
2023/02/27 01:51:00;;;;;;;;;;;5.30;59.20;;;;;;6277760;22;19999;-75
2023/02/27 01:53:29;;;;;;;1.67;0.80;;;5.30;59.60;;;;;;6277274;22;19899;-75
2023/02/27 01:56:06;;;;;;;2.47;0.90;;;5.30;59.70;;;;;;6276978;22;20003;-75
2023/02/27 01:58:32;;;;;;;1.60;0.80;;;5.20;59.60;;;;;;6272593;22;20727;-75
2023/02/27 02:00:58;;;;;;;2.97;0.80;;;5.20;59.80;;;;;;6273586;22;20156;-75
2023/02/27 02:03:42;;;;;;;2.50;0.90;;;5.10;59.70;;;;;;6273403;22;20039;-74
2023/02/27 02:06:09;;;;;;;5.10;1.00;;;5.10;60.40;;;;;;6276112;22;20010;-75
2023/02/27 02:08:43;;;;;;;2.33;0.80;;;5.10;59.60;;;;;;6276358;22;20020;-75
2023/02/27 02:11:10;;;;;;;1.83;0.90;;;5.10;60.10;;;;;;6275317;22;20003;-75
2023/02/27 02:13:38;;;;;;;2.27;0.70;;;5.10;60.30;;;;;;6276513;22;20414;-74
2023/02/27 02:16:24;;;;;;;1.93;0.80;;;5.10;60.20;;;;;;6276818;22;20070;-72
2023/02/27 02:18:53;;;;;;;1.40;0.87;;;5.10;58.80;;;;;;6276407;22;20003;-75
2023/02/27 02:21:33;;;;;;;1.33;0.73;;;5.10;58.70;;;;;;6276965;22;20004;-75
2023/02/27 02:24:39;;;;;;;2.50;0.90;;;5.10;58.70;;;;;;6276276;22;20436;-75
2023/02/27 02:27:20;;;;;;;2.23;0.80;;;5.10;58.40;;;;;;6276340;22;20489;-75
2023/02/27 02:30:22;;;;;;;2.10;0.97;;;5.10;58.80;;;;;;6276619;22;20010;-75
2023/02/27 02:33:18;;;;;;;1.63;0.95;;;5.10;59.20;;;;;;6276499;22;19999;-71
2023/02/27 02:35:50;;;;;;;1.70;0.73;;;5.00;59.30;;;;;;6276233;22;20015;-73
2023/02/27 02:38:43;;;;;;;1.10;0.80;;;5.00;59.70;;;;;;6276430;22;20004;-74
2023/02/27 02:41:16;;;;;;;3.73;0.77;;;5.00;60.40;;;;;;6276971;22;20069;-73
2023/02/27 02:43:51;;;;;;;1.23;0.90;;;5.00;60.30;;;;;;6274293;22;20007;-76
2023/02/27 02:46:45;;;;;;;1.20;0.70;;;5.00;59.40;;;;;;6275103;22;20438;-72
2023/02/27 02:49:16;;;;;;;1.40;0.90;;;5.10;58.80;;;;;;6276594;22;20398;-75
2023/02/27 02:51:49;;;;;;;1.83;0.80;;;5.00;59.20;;;;;;6275871;22;20007;-74
2023/02/27 02:54:21;;;;;;;1.30;0.70;;;5.10;59.80;;;;;;6276159;22;20011;-76
2023/02/27 02:57:14;;;;;;;1.93;0.87;;;5.00;60.00;;;;;;6276190;22;20008;-75
2023/02/27 03:00:07;;;;;;;1.23;0.70;;;5.00;60.80;;;;;;6274888;22;20010;-75
2023/02/27 03:02:45;;;;;;;1.15;0.70;;;5.00;60.50;;;;;;6274403;22;20004;-74
2023/02/27 03:05:31;;;;;;;1.20;0.73;;;5.00;59.00;;;;;;6276325;22;20003;-75
2023/02/27 03:08:03;;;;;;;1.03;0.70;;;5.00;58.70;;;;;;6276110;22;20008;-75
2023/02/27 03:10:40;;;;;;;1.10;0.80;;;5.00;58.90;;;;;;6276040;22;20042;-75
2023/02/27 03:13:25;;;;;;;2.40;0.90;;;5.00;59.00;;;;;;6276225;22;20004;-71
2023/02/27 03:16:01;;;;;;;3.07;1.00;;;5.10;58.40;;;;;;6276347;22;20023;-74
2023/02/27 03:18:33;;;;;;;2.67;1.03;;;5.10;58.40;;;;;;6276350;22;20097;-74
2023/02/27 03:21:15;;;;;;;2.70;0.80;;;5.10;58.60;;;;;;6276238;22;20004;-74
2023/02/27 03:23:46;;;;;;;1.97;0.83;;;5.10;58.70;;;;;;6276042;22;19999;-72
2023/02/27 03:26:18;;;;;;;1.30;0.63;;;5.00;59.10;;;;;;6276089;22;20015;-75
2023/02/27 03:29:09;;;;;;;1.45;0.95;;;5.10;59.30;;;;;;6275960;22;20039;-75
2023/02/27 03:31:54;;;;;;;1.90;1.03;;;5.10;59.60;;;;;;6266833;22;20006;-75
2023/02/27 03:34:32;;;;;;;0.87;0.70;;;5.10;59.40;;;;;;6274505;22;20010;-75
2023/02/27 03:37:20;;;;;;;1.20;0.80;;;5.10;59.60;;;;;;6276053;22;20006;-74
2023/02/27 03:39:51;;;;;;;1.23;0.80;;;5.00;59.40;;;;;;6275785;22;20020;-75
2023/02/27 03:42:36;;;;;;;1.10;0.83;;;5.10;59.60;;;;;;6276032;22;19999;-75
2023/02/27 03:45:27;;;;;;;1.83;0.87;;;5.00;59.70;;;;;;6276223;22;20061;-75
2023/02/27 03:47:53;;;;;;;1.87;0.93;;;5.00;59.70;;;;;;6275798;22;20015;-75
2023/02/27 03:50:19;;;;;;;1.57;0.80;;;5.10;59.90;;;;;;6276046;22;20022;-75
2023/02/27 03:52:45;;;;;;;1.57;0.83;;;5.00;59.70;;;;;;6276247;22;20007;-76
2023/02/27 03:55:20;;;;;;;1.60;0.93;;;5.10;59.90;;;;;;6276085;22;19999;-76
2023/02/27 03:57:49;;;;;;;1.23;0.90;;;5.00;59.80;;;;;;6275687;22;20475;-76
2023/02/27 04:00:23;;;;;;;1.60;1.10;;;5.00;59.40;;;;;;6275743;22;20000;-75
2023/02/27 04:02:51;;;;;;;1.73;0.90;;;5.00;59.50;;;;;;6275899;22;20382;-75
2023/02/27 04:05:18;;;;;;;1.87;0.90;;;5.00;59.10;;;;;;6275895;22;19995;-75
2023/02/27 04:08:29;;;;;;;1.67;1.00;;;5.00;58.50;;;;;;6275761;22;20457;-76
2023/02/27 04:11:06;;;;;;;1.60;1.00;;;4.90;58.50;;;;;;6275763;22;19996;-76
2023/02/27 04:13:50;;;;;;;2.47;1.00;;;4.90;58.60;;;;;;6275598;22;20075;-75
2023/02/27 04:16:37;;;;;;;1.37;0.90;;;4.90;58.60;;;;;;6275809;22;20000;-75
2023/02/27 04:19:30;;;;;;;2.33;1.20;;;4.90;58.10;;;;;;6275836;22;20296;-75
2023/02/27 04:22:29;;;;;;;1.73;0.85;;;4.90;58.30;;;;;;6275784;22;20338;-74
2023/02/27 04:25:23;;;;;;;2.23;1.10;;;4.90;58.60;;;;;;6275759;22;20010;-73
2023/02/27 04:28:04;;;;;;;1.87;0.80;;;4.90;58.70;;;;;;6275389;22;20032;-70
2023/02/27 04:30:48;;;;;;;1.53;0.90;;;4.90;58.60;;;;;;6275663;22;19995;-75
2023/02/27 04:33:24;;;;;;;2.70;1.10;;;4.80;58.90;;;;;;6275636;22;20030;-74
2023/02/27 04:36:14;;;;;;;1.73;1.13;;;4.80;59.10;;;;;;6275919;22;20004;-75
2023/02/27 04:38:52;;;;;;;5.90;1.00;;;4.80;59.20;;;;;;6267557;22;20049;-75
2023/02/27 04:41:27;;;;;;;2.80;0.70;;;4.80;59.70;;;;;;6275584;22;20010;-76
2023/02/27 04:43:54;;;;;;;2.93;1.13;;;4.70;59.30;;;;;;6275567;22;20000;-75
2023/02/27 04:46:24;;;;;;;2.17;1.27;;;4.70;58.70;;;;;;6274117;22;20090;-75
2023/02/27 04:49:01;;;;;;;1.80;0.83;;;4.70;58.60;;;;;;6275615;22;20465;-75
2023/02/27 04:51:36;;;;;;;1.40;0.90;;;4.70;59.10;;;;;;6275661;22;20004;-74
2023/02/27 04:54:15;;;;;;;2.73;1.20;;;4.70;59.50;;;;;;6277766;22;19996;-75
2023/02/27 04:56:46;;;;;;;2.30;1.20;;;4.70;59.60;;;;;;6277556;22;20004;-73
2023/02/27 04:59:29;;;;;;;3.83;1.30;;;4.70;59.90;;;;;;6277231;22;20000;-74
2023/02/27 05:02:09;;;;;;;2.43;0.97;;;4.70;60.00;;;;;;6277296;22;20006;-73
2023/02/27 05:04:39;;;;;;;2.03;0.97;;;4.70;59.40;;;;;;6277740;22;20031;-74
2023/02/27 05:07:08;;;;;;;3.93;1.30;;;4.60;59.40;;;;;;6277880;22;20054;-74
2023/02/27 05:09:45;;;;;;;1.90;1.10;;;4.60;59.10;;;;;;6277251;22;20008;-74
2023/02/27 05:12:16;;;;;;;3.37;1.10;;;4.60;58.90;;;;;;6277052;22;19999;-75
2023/02/27 05:14:58;;;;;;;2.10;1.17;;;4.60;58.40;;;;;;6275618;22;20004;-74
2023/02/27 05:17:44;;;;;;;3.92;1.38;;;4.60;58.20;;;;;;6277490;22;20011;-73
2023/02/27 05:20:12;;;;;;;1.77;1.10;;;4.60;58.60;;;;;;6277356;22;20010;-73
2023/02/27 05:23:19;;;;;;;2.70;1.50;;;4.60;59.00;;;;;;6277567;22;20000;-74
2023/02/27 05:25:56;;;;;;;1.57;0.90;;;4.50;59.50;;;;;;6277003;22;20003;-72
2023/02/27 05:28:54;;;;;;;1.10;0.80;;;4.50;59.30;;;;;;6275735;22;20016;-73
2023/02/27 05:31:34;;;;;;;3.23;1.10;;;4.40;59.40;;;;;;6277581;22;20007;-74
2023/02/27 05:34:16;;;;;;;1.90;1.07;;;4.40;59.40;;;;;;6277288;22;20049;-72
2023/02/27 05:37:09;;;;;;;1.43;1.00;;;4.40;59.50;;;;;;6277365;22;20011;-73
2023/02/27 05:39:38;;;;;;;1.55;1.13;;;4.40;59.40;;;;;;6277070;22;20002;-77
2023/02/27 05:42:13;;;;;;;5.17;1.10;;;4.40;59.70;;;;;;6276926;22;20004;-76
2023/02/27 05:44:46;;;;;;;2.23;1.50;;;4.40;60.00;;;;;;6277081;22;20418;-74
2023/02/27 05:47:20;;;;;;;3.83;1.73;;;4.40;59.80;;;;;;6276791;22;20011;-72
2023/02/27 05:49:50;;;;;;;4.47;1.73;;;4.40;60.00;;;;;;6277061;22;20034;-72
2023/02/27 05:52:21;;;;;;;3.83;1.70;;;4.40;60.10;;;;;;6276868;22;20007;-72
2023/02/27 05:55:03;;;;;;;4.40;2.00;;;4.40;60.30;;;;;;6277043;22;20113;-74
2023/02/27 05:57:43;;;;;;;3.60;1.80;;;4.40;60.20;;;;;;6276844;22;20083;-73
2023/02/27 06:00:21;;;;;;;7.33;1.83;;;4.40;60.80;;;;;;6277096;22;20038;-73
2023/02/27 06:02:47;;;;;;;8.10;2.50;;;4.40;60.80;;;;;;6275229;22;20037;-73
2023/02/27 06:05:15;;;;;;;5.27;1.83;;;4.30;61.00;;;;;;6276937;22;20007;-74
2023/02/27 06:07:40;;;;;;;4.77;2.10;;;4.30;61.60;;;;;;6276680;22;20008;-74
2023/02/27 06:10:07;;;;;;;4.03;1.80;;;4.30;61.60;;;;;;6276628;22;19996;-74
2023/02/27 06:12:32;;;;;;;4.63;1.63;;;4.30;60.90;;;;;;6276855;22;20431;-73
2023/02/27 06:14:58;;;;;;;2.93;1.40;;;4.30;61.00;;;;;;6276632;22;20030;-74
2023/02/27 06:17:24;;;;;;;4.13;1.60;;;4.30;61.60;;;;;;6276510;22;20010;-74
2023/02/27 06:19:50;;;;;;;5.77;1.70;;;4.30;61.70;;;;;;6276808;22;20441;-74
2023/02/27 06:22:15;;;;;;;7.13;2.03;;;4.40;61.20;;;;;;6276785;22;20000;-73
2023/02/27 06:24:41;;;;;;;4.93;1.57;;;4.40;60.90;;;;;;6276488;22;20007;-73
2023/02/27 06:27:07;;;;;;;13.23;1.60;;;4.40;60.20;;;;;;6276322;22;20012;-74
2023/02/27 06:29:32;;;;;;;5.00;1.40;;;4.50;59.70;;;;;;6276783;22;20003;-78
2023/02/27 06:31:58;;;;;;;2.80;1.73;;;4.50;58.90;;;;;;6276744;22;19995;-74
2023/02/27 06:34:24;;;;;;;2.60;1.50;;;4.60;57.90;;;;;;6276387;22;20312;-74
2023/02/27 06:36:49;;;;;;;3.80;1.50;;;4.60;57.40;;;;;;6275191;22;20004;-75
2023/02/27 06:39:15;;;;;;;2.40;1.43;;;4.60;57.40;;;;;;6276413;22;19995;-74
2023/02/27 06:41:41;;;;;;;1.60;1.10;;;4.70;57.70;;;;;;6277133;22;20014;-75
2023/02/27 06:44:07;;;;;;;4.27;1.70;;;4.70;57.80;;;;;;6276142;22;20323;-75
2023/02/27 06:46:32;;;;;;;2.67;1.50;;;4.80;57.80;;;;;;6276636;22;20000;-75
2023/02/27 06:48:58;;;;;;;3.20;1.70;;;4.80;57.60;;;;;;6276071;22;20041;-75
2023/02/27 06:51:23;;;;;;;4.57;1.70;;;4.80;57.60;;;;;;6276172;22;20019;-74
2023/02/27 06:53:50;;;;;;;7.37;1.60;;;4.90;57.70;;;;;;6276242;22;20007;-74
2023/02/27 06:56:16;;;;;;;4.90;1.70;;;5.00;57.70;;;;;;6275113;22;20004;-75
2023/02/27 06:58:41;;;;;;;4.73;1.60;;;5.00;57.40;;;;;;6276629;22;20330;-75
2023/02/27 07:01:07;;;;;;;6.90;1.57;;;5.00;57.50;;;;;;6276470;22;20004;-74
2023/02/27 07:03:33;;;;;;;3.00;1.77;;;5.10;57.30;;;;;;6276721;22;20008;-75
2023/02/27 07:05:59;;;;;;;5.43;1.13;;;5.10;57.30;;;;;;6276550;22;20326;-73
2023/02/27 07:08:24;;;;;;;3.00;1.40;;;5.10;57.20;;;;;;6276020;22;20012;-75
2023/02/27 07:10:50;;;;;;;2.70;1.20;;;5.20;57.10;;;;;;6275835;22;20318;-75
2023/02/27 07:13:17;;;;;;;2.63;1.60;;;5.20;57.30;;;;;;6276227;22;20035;-75
2023/02/27 07:15:43;;;;;;;2.17;1.30;;;5.20;56.30;;;;;;6275702;22;20327;-74
2023/02/27 07:18:09;;;;;;;9.30;1.33;;;5.20;56.30;;;;;;6276615;22;19999;-73
2023/02/27 07:20:35;;;;;;;2.63;1.30;;;5.20;56.40;;;;;;6276162;22;20000;-73
2023/02/27 07:23:01;;;;;;;2.03;1.30;;;5.30;56.20;;;;;;6276149;22;20034;-72
2023/02/27 07:25:27;;;;;;;5.67;1.40;;;5.30;56.30;;;;;;6276119;22;20426;-73
2023/02/27 07:27:53;;;;;;;3.90;1.40;;;5.30;56.40;;;;;;6276417;22;20045;-72
2023/02/27 07:30:20;;;;;;;3.33;1.47;;;5.40;56.10;;;;;;6276114;22;20027;-70
2023/02/27 07:32:46;;;;;;;3.53;1.47;;;5.50;55.40;;;;;;6275855;22;20034;-74
2023/02/27 07:35:12;;;;;;;2.63;1.50;;;5.50;55.00;;;;;;6276154;22;20480;-74
2023/02/27 07:37:38;;;;;;;4.67;1.83;;;5.50;55.70;;;;;;6275182;22;20363;-73
2023/02/27 07:40:06;;;;;;;3.67;1.70;;;5.60;55.10;;;;;;6273151;22;20027;-74
2023/02/27 07:42:32;;;;;;;2.57;1.40;;;5.60;55.40;;;;;;6273099;22;20004;-74
2023/02/27 07:44:59;;;;;;;14.30;1.73;;;5.60;55.80;;;;;;6274526;22;20002;-73
2023/02/27 07:47:25;;;;;;;6.67;1.80;;;5.60;55.70;;;;;;6275784;22;20061;-71
2023/02/27 07:49:50;;;;;;;2.93;1.60;;;5.70;56.10;;;;;;6275972;22;20023;-75
2023/02/27 07:52:16;;;;;;;3.83;1.90;;;5.80;55.50;;;;;;6276050;22;20046;-70
2023/02/27 07:54:42;;;;;;;3.47;1.77;;;5.80;55.00;;;;;;6276062;22;20486;-71
2023/02/27 07:57:07;;;;;;;3.37;1.70;;;5.80;54.80;;;;;;6275924;22;20011;-70
2023/02/27 07:59:33;;;;;;;3.30;1.63;;;5.80;55.00;;;;;;6275904;22;19996;-72
2023/02/27 08:01:59;;;;;;;3.87;1.60;;;5.80;55.20;;;;;;6275877;22;20006;-72
2023/02/27 08:04:24;;;;;;;4.93;1.50;;;5.90;55.90;;;;;;6276104;22;20406;-71
2023/02/27 08:06:50;;;;;;;3.53;1.50;;;5.90;55.20;;;;;;6274675;22;20156;-73
2023/02/27 08:09:16;;;;;;;3.07;1.50;;;6.00;55.20;;;;;;6273044;22;20011;-72
2023/02/27 08:11:42;;;;;;;5.17;1.70;;;6.00;55.20;;;;;;6273495;22;20008;-71
2023/02/27 08:14:07;;;;;;;3.27;1.40;;;6.10;55.00;;;;;;6275958;22;20503;-73
2023/02/27 08:16:33;;;;;;;3.73;1.60;;;6.10;55.20;;;;;;6275759;22;20369;-72
2023/02/27 08:18:59;;;;;;;2.77;1.60;;;6.20;55.20;;;;;;6275738;22;20449;-73
2023/02/27 08:21:25;;;;;;;2.60;1.10;;;6.20;54.90;;;;;;6276070;22;19999;-71
2023/02/27 08:23:51;;;;;;;3.87;1.40;;;6.30;54.70;;;;;;6275947;22;20003;-72
2023/02/27 08:26:17;;;;;;;3.57;1.60;;;6.30;54.50;;;;;;6277135;22;20373;-72
2023/02/27 08:28:42;;;;;;;3.47;1.60;;;6.40;54.40;;;;;;6278194;22;20018;-74
2023/02/27 08:31:08;;;;;;;4.57;1.40;;;6.40;53.80;;;;;;6277725;22;19997;-69
2023/02/27 08:33:34;;;;;;;1.57;1.20;;;6.50;53.60;;;;;;6277647;22;20007;-71
2023/02/27 08:36:00;;;;;;;3.03;1.67;;;6.50;53.40;;;;;;6278049;22;19996;-71
2023/02/27 08:38:25;;;;;;;2.17;1.37;;;6.60;53.20;;;;;;6278293;22;20007;-74
2023/02/27 08:40:54;;;;;;;2.60;1.63;;;6.60;53.20;;;;;;6278208;22;20015;-74
2023/02/27 08:43:20;;;;;;;4.40;1.80;;;6.60;52.60;;;;;;6276981;22;19999;-74
2023/02/27 08:45:47;;;;;;;3.23;1.63;;;6.70;52.10;;;;;;6277712;22;20008;-73
2023/02/27 08:48:14;;;;;;;5.00;1.70;;;6.70;52.30;;;;;;6277482;22;20068;-73
2023/02/27 08:50:41;;;;;;;9.63;1.93;;;6.80;52.20;;;;;;6277811;22;19996;-74
2023/02/27 08:53:07;;;;;;;4.03;1.50;;;6.80;52.30;;;;;;6276198;22;20448;-74
2023/02/27 08:55:34;;;;;;;4.93;1.60;;;6.90;51.90;;;;;;6277852;22;20023;-74
2023/02/27 08:57:59;;;;;;;2.93;1.70;;;6.90;51.60;;;;;;6277854;22;20004;-73
2023/02/27 09:00:25;;;;;;;4.47;1.90;;;6.90;50.50;;;;;;6277979;22;20075;-73
2023/02/27 09:02:52;;;;;;;2.70;1.90;;;6.90;50.60;;;;;;6277834;22;20000;-74
2023/02/27 09:05:18;;;;;;;3.97;1.50;;;7.00;51.30;;;;;;6277976;22;20000;-73
2023/02/27 09:07:43;;;;;;;3.57;2.10;;;7.00;50.90;;;;;;6277547;22;20385;-73
2023/02/27 09:10:11;;;;;;;4.50;2.10;;;7.00;50.60;;;;;;6278089;22;20000;-74
2023/02/27 09:12:36;;;;;;;5.47;2.33;;;7.00;51.20;;;;;;6277811;22;20011;-73
2023/02/27 09:15:04;;;;;;;3.63;1.90;;;7.10;50.60;;;;;;6277823;22;20000;-72
2023/02/27 09:17:30;;;;;;;31.80;4.53;;;7.10;51.30;;;;;;6277585;22;20006;-72
2023/02/27 09:19:55;;;;;;;145.80;11.87;;;7.20;52.20;;;;;;6278130;22;20075;-70
2023/02/27 09:22:21;;;;;;;6.13;2.50;;;7.20;51.90;;;;;;6277706;22;20086;-71
2023/02/27 09:24:47;;;;;;;4.93;1.57;;;7.30;51.80;;;;;;6277800;22;20470;-71
2023/02/27 09:27:13;;;;;;;6.63;2.00;;;7.30;50.60;;;;;;6277628;22;20457;-71
2023/02/27 09:29:38;;;;;;;25.13;3.93;;;7.30;50.20;;;;;;6277939;22;20041;-69
2023/02/27 09:32:04;;;;;;;4.97;1.90;;;7.40;50.70;;;;;;6277417;22;20011;-71
2023/02/27 09:34:30;;;;;;;8.27;2.53;;;7.40;51.60;;;;;;6277728;22;20000;-71
2023/02/27 09:36:58;;;;;;;14.13;2.97;;;7.50;52.30;;;;;;6277420;22;20322;-70
2023/02/27 09:39:24;;;;;;;286.03;23.63;;;7.60;52.40;;;;;;6275576;22;20043;-71
2023/02/27 09:42:20;;;;;;;22.90;3.67;;;7.60;53.10;;;;;;6277671;22;20023;-71
2023/02/27 09:44:52;;;;;;;11.50;2.50;;;7.70;51.90;;;;;;6277623;22;20434;-71
2023/02/27 09:47:32;;;;;;;10.83;2.43;;;7.80;51.40;;;;;;6277159;22;20011;-71
2023/02/27 09:50:30;;;;;;;5.17;1.90;;;7.80;50.70;;;;;;6277580;22;20226;-71
2023/02/27 09:52:56;;;;;;;13.27;2.20;;;7.90;49.60;;;;;;6273877;22;20037;-71
2023/02/27 09:55:23;;;;;;;4.37;1.90;;;7.90;50.20;;;;;;6277280;22;20000;-71
2023/02/27 09:58:20;;;;;;;6.87;2.47;;;7.90;49.40;;;;;;6277466;22;20410;-70
2023/02/27 10:00:57;;;;;;;15.37;2.30;;;7.90;49.70;;;;;;6277049;22;20438;-71
2023/02/27 10:03:42;;;;;;;5.03;2.30;;;8.00;50.90;;;;;;6276860;22;19996;-70
2023/02/27 10:06:19;;;;;;;4.03;2.07;;;8.00;51.00;;;;;;6277513;22;20000;-71
2023/02/27 10:08:56;;;;;;;3.43;2.07;;;8.00;50.70;;;;;;6277275;22;20142;-72
2023/02/27 10:11:35;;;;;;;4.67;2.40;;;8.00;50.40;;;;;;6276712;22;20069;-71
2023/02/27 10:14:35;;;;;;;124.40;9.93;;;8.00;50.00;;;;;;6276978;22;20426;-71
2023/02/27 10:17:04;;;;;;;6.37;2.50;;;8.00;50.70;;;;;;6247031;22;20060;-71
2023/02/27 10:19:34;;;;;;;55.03;5.97;;;8.00;50.00;;;;;;6277253;22;20075;-71
2023/02/27 10:22:05;;;;;;;4.97;2.00;;;8.00;50.70;;;;;;6277366;22;20130;-71
2023/02/27 10:24:43;;;;;;;4.80;2.10;;;8.00;50.00;;;;;;6276926;22;20069;-71
2023/02/27 10:27:16;;;;;;;5.97;2.30;;;8.00;50.20;;;;;;6276588;22;20054;-71
2023/02/27 10:29:42;;;;;;;3.95;2.55;;;8.00;49.50;;;;;;6277086;22;20004;-71
2023/02/27 10:32:18;;;;;;;5.47;2.57;;;8.00;49.80;;;;;;6277519;22;20007;-71
2023/02/27 10:35:06;;;;;;;3.83;2.17;;;8.00;50.70;;;;;;6277001;22;20003;-71
2023/02/27 10:37:35;;;;;;;3.93;2.00;;;8.10;50.60;;;;;;6265960;22;20026;-72
2023/02/27 10:40:05;;;;;;;5.13;2.43;;;8.20;50.10;;;;;;6277095;22;20079;-71
2023/02/27 10:42:36;;;;;;;23.53;2.80;;;8.30;50.40;;;;;;6277107;22;20043;-71
2023/02/27 10:45:11;;;;;;;24.23;2.60;;;8.30;50.10;;;;;;6277482;22;20046;-72
2023/02/27 10:47:38;;;;;;;5.83;2.50;;;8.40;50.70;;;;;;6276705;22;20016;-71
2023/02/27 10:50:24;;;;;;;4.47;2.37;;;8.50;50.30;;;;;;6276958;22;20426;-70
2023/02/27 10:52:52;;;;;;;11.07;2.20;;;8.50;50.10;;;;;;6277038;22;20007;-71
2023/02/27 10:55:23;;;;;;;8.37;2.60;;;8.50;48.90;;;;;;6276764;22;20086;-71
2023/02/27 10:57:49;;;;;;;8.33;2.27;;;8.60;49.40;;;;;;6276615;22;20445;-71
2023/02/27 11:00:27;;;;;;;5.40;2.27;;;8.60;48.30;;;;;;6277126;22;20004;-71
2023/02/27 11:02:53;;;;;;;11.73;2.57;;;8.60;49.70;;;;;;6276544;22;20323;-71
2023/02/27 11:05:32;;;;;;;5.17;2.20;;;8.70;49.80;;;;;;6276500;22;20000;-70
2023/02/27 11:08:19;;;;;;;7.43;2.37;;;8.80;49.40;;;;;;6276778;22;20016;-68
2023/02/27 11:11:03;;;;;;;3.20;2.03;;;8.80;49.60;;;;;;6276543;22;19999;-70
2023/02/27 11:13:34;;;;;;;9.23;2.50;;;8.90;48.10;;;;;;6276509;22;20449;-69
2023/02/27 11:16:16;;;;;;;5.07;2.40;;;9.00;48.80;;;;;;6276592;22;20067;-69
2023/02/27 11:18:44;;;;;;;6.77;2.70;;;9.00;48.60;;;;;;6276771;22;20007;-68
2023/02/27 11:21:23;;;;;;;3.73;2.20;;;9.10;47.40;;;;;;6276624;22;19996;-69
2023/02/27 11:23:58;;;;;;;13.77;2.90;;;9.20;47.10;;;;;;6276643;22;20010;-69
2023/02/27 11:26:32;;;;;;;4.17;2.10;;;9.10;46.30;;;;;;6276789;22;20003;-68
2023/02/27 11:29:06;;;;;;;3.33;2.10;;;9.10;47.00;;;;;;6276184;22;20070;-68
2023/02/27 11:31:35;;;;;;;4.60;2.40;;;9.20;47.90;;;;;;6276711;22;20058;-68
2023/02/27 11:34:03;;;;;;;3.90;2.50;;;9.30;48.10;;;;;;6276595;22;20069;-69
2023/02/27 11:36:44;;;;;;;4.07;2.10;;;9.40;48.00;;;;;;6276192;22;20327;-69
2023/02/27 11:39:26;;;;;;;3.87;2.50;;;9.50;47.60;;;;;;6276048;22;20000;-69
2023/02/27 11:41:53;;;;;;;4.75;2.40;;;9.60;47.40;;;;;;6276616;22;20361;-68
2023/02/27 11:44:24;;;;;;;3.40;2.40;;;9.60;46.50;;;;;;6276379;22;20000;-69
2023/02/27 11:46:49;;;;;;;5.67;2.60;;;9.60;46.40;;;;;;6276040;22;20008;-69
2023/02/27 11:49:27;;;;;;;5.37;2.80;;;9.70;47.30;;;;;;6276225;22;20023;-68
2023/02/27 11:52:06;;;;;;;6.90;2.80;;;9.70;46.60;;;;;;6276296;22;20022;-69
2023/02/27 11:54:39;;;;;;;4.20;2.63;;;9.70;46.40;;;;;;6276621;22;20318;-69
2023/02/27 11:57:28;;;;;;;6.50;3.13;;;9.70;47.20;;;;;;6276047;22;20057;-68
2023/02/27 12:00:05;;;;;;;4.90;2.70;;;9.70;46.80;;;;;;6276039;22;20022;-69
2023/02/27 12:02:59;;;;;;;6.03;2.90;;;9.80;47.40;;;;;;6276337;22;20369;-69
2023/02/27 12:05:26;;;;;;;8.67;2.80;;;9.90;46.20;;;;;;6276163;22;20007;-69
2023/02/27 12:08:04;;;;;;;6.10;3.00;;;9.90;47.20;;;;;;6276147;22;20007;-69
2023/02/27 12:10:53;;;;;;;12.63;3.40;;;9.90;46.40;;;;;;6275825;22;20449;-69
2023/02/27 12:13:30;;;;;;;9.13;3.30;;;9.90;46.00;;;;;;6275864;22;20000;-69
2023/02/27 12:16:07;;;;;;;5.97;3.27;;;9.80;46.80;;;;;;6275995;22;20000;-69
2023/02/27 12:18:39;;;;;;;5.23;3.00;;;9.80;46.50;;;;;;6275856;22;19996;-69
2023/02/27 12:21:12;;;;;;;6.53;3.28;;;9.70;46.90;;;;;;6276317;22;20035;-69
2023/02/27 12:23:52;;;;;;;5.25;3.20;;;9.60;46.60;;;;;;6276263;22;20002;-69
2023/02/27 12:26:38;;;;;;;5.33;3.13;;;9.50;46.90;;;;;;6275838;22;20027;-69
2023/02/27 12:29:13;;;;;;;9.30;3.10;;;9.40;47.30;;;;;;6275470;22;20012;-69
2023/02/27 12:31:48;;;;;;;11.13;4.13;;;9.30;48.20;;;;;;6276303;22;20007;-71
2023/02/27 12:34:17;;;;;;;4.83;3.10;;;9.20;47.00;;;;;;6276046;22;20446;-70
2023/02/27 12:36:44;;;;;;;4.67;2.93;;;9.10;47.00;;;;;;6276053;22;20323;-71
2023/02/27 12:39:28;;;;;;;5.77;3.53;;;9.00;48.10;;;;;;6276002;22;19996;-72
2023/02/27 12:42:09;;;;;;;6.03;3.20;;;8.90;47.90;;;;;;6275587;22;20000;-72
2023/02/27 12:45:11;;;;;;;6.83;3.40;;;8.80;47.50;;;;;;6274315;22;20012;-71
2023/02/27 12:47:45;;;;;;;7.47;3.30;;;8.70;48.10;;;;;;6275582;22;20069;-71
2023/02/27 12:50:20;;;;;;;4.90;3.23;;;8.70;49.20;;;;;;6274488;22;20459;-72
2023/02/27 12:52:55;;;;;;;10.13;3.67;;;8.70;48.90;;;;;;6276222;22;20440;-71
2023/02/27 12:55:51;;;;;;;4.60;3.20;;;8.60;48.80;;;;;;6275571;22;20081;-72
2023/02/27 12:58:23;;;;;;;6.93;3.47;;;8.60;49.40;;;;;;6275893;22;19999;-70
2023/02/27 13:01:01;;;;;;;6.07;4.00;;;8.60;49.60;;;;;;6274491;22;20027;-72
2023/02/27 13:03:38;;;;;;;9.63;3.73;;;8.60;49.90;;;;;;6276010;22;20042;-71
2023/02/27 13:06:17;;;;;;;17.03;11.43;;;8.60;49.50;;;;;;6276001;22;20030;-71
2023/02/27 13:09:10;;;;;;;9.00;3.97;;;8.60;49.70;;;;;;6275790;22;20008;-72
2023/02/27 13:12:01;;;;;;;7.63;3.80;;;8.60;50.10;;;;;;6275717;22;20008;-72
2023/02/27 13:14:51;;;;;;;13.73;3.90;;;8.60;50.40;;;;;;6277338;22;20081;-72
2023/02/27 13:17:33;;;;;;;7.67;4.20;;;8.70;50.60;;;;;;6277460;22;20106;-72
2023/02/27 13:20:04;;;;;;;7.40;4.17;;;8.70;50.80;;;;;;6277934;22;20010;-72
2023/02/27 13:22:47;;;;;;;10.30;4.27;;;8.80;50.10;;;;;;6277829;22;20602;-68
2023/02/27 13:25:14;;;;;;;;;;;8.90;48.90;;;;;;6278211;22;20003;-70
2023/02/27 13:27:43;;;;;;;7.00;4.17;;;8.90;48.70;;;;;;6277562;22;19907;-68